aviador You're here:

KBKX Decoded Metar

BROOKINGS in SD, USA
Report Time2017-06-25 01:56:00
UTC Time2017-06-25 02:04:18
Flight Rules unknown UNKNOWN
Wind340° at 13 Gusting to 18 kt
W.Decomp.*RWY 35: 12.5 kt HW 3.6 kt LCW
RWY 30: 10.8 kt HW 7.3 kt RCW
W.Rank340° ranks 12
Current wind is above 340° avg. (10.6)
VisibilityN/A
Phenomena:N/A
Clouds:Overcast 055 Hf
Expected CloudBase > 3,600 ft AGL from Temp-Dew spread
Ceiling5,500 ft
Temp15°C (ISA +3)
Dew Point06°C (55% RH)
AAT9.4°C
QNH1022 hPa
Density Alt1,864 ft
Elevation1,647 ft
Report Wrong Elevation
Raw Report
KBKX 250156Z AUTO 34013G18KT OVC055 15/06 A3017 RMK AO2 SLP231
T01500056 RVRNO $=

Extra information for KBKX:More info

Metar Taf Metar & Taf Last 4 Metars F.Rules Stats Wind Profile Meteogram Temp Stats Airport Information Weather charts Add Link Nearby VenuesMetar ALERT Operation Metar Decoded Social comments

AIRNAV info for KBKX